sensor_id;sensor_type;location;lat;lon;timestamp;pressure;altitude;pressure_sealevel;temperature;humidity
8523;BME280;4299;42.202;24.736;2022-11-27T00:14:10;100589.69;;;4.72;nan
8523;BME280;4299;42.202;24.736;2022-11-27T00:16:38;100749.13;;;5.90;nan
8523;BME280;4299;42.202;24.736;2022-11-27T00:19:04;100750.78;;;5.94;nan
8523;BME280;4299;42.202;24.736;2022-11-27T00:21:33;100755.94;;;6.00;nan
8523;BME280;4299;42.202;24.736;2022-11-27T00:24:03;100768.94;;;6.10;nan
8523;BME280;4299;42.202;24.736;2022-11-27T00:26:31;100760.94;;;6.15;nan
8523;BME280;4299;42.202;24.736;2022-11-27T00:28:59;100761.00;;;6.12;nan
8523;BME280;4299;42.202;24.736;2022-11-27T00:31:29;100769.81;;;6.11;nan
8523;BME280;4299;42.202;24.736;2022-11-27T00:33:57;100762.78;;;6.10;nan
8523;BME280;4299;42.202;24.736;2022-11-27T00:36:25;100769.81;;;6.11;nan
8523;BME280;4299;42.202;24.736;2022-11-27T00:38:52;100763.66;;;6.12;nan
8523;BME280;4299;42.202;24.736;2022-11-27T00:41:20;100763.53;;;6.16;nan
8523;BME280;4299;42.202;24.736;2022-11-27T00:43:49;100759.41;;;6.02;nan
8523;BME280;4299;42.202;24.736;2022-11-27T00:46:17;100768.16;;;6.04;nan
8523;BME280;4299;42.202;24.736;2022-11-27T00:48:45;100769.91;;;6.06;nan
8523;BME280;4299;42.202;24.736;2022-11-27T00:51:18;100758.50;;;6.04;nan
8523;BME280;4299;42.202;24.736;2022-11-27T00:53:45;100773.44;;;6.04;nan
8523;BME280;4299;42.202;24.736;2022-11-27T00:56:15;100776.91;;;6.06;nan
8523;BME280;4299;42.202;24.736;2022-11-27T00:58:42;100780.47;;;6.02;nan
8523;BME280;4299;42.202;24.736;2022-11-27T01:01:15;100783.97;;;6.04;nan
8523;BME280;4299;42.202;24.736;2022-11-27T01:03:43;100773.53;;;5.98;nan
8523;BME280;4299;42.202;24.736;2022-11-27T01:06:10;100772.66;;;5.97;nan
8523;BME280;4299;42.202;24.736;2022-11-27T01:08:37;100765.69;;;5.93;nan
8523;BME280;4299;42.202;24.736;2022-11-27T01:11:05;100761.31;;;5.94;nan
8523;BME280;4299;42.202;24.736;2022-11-27T01:13:33;100765.78;;;5.90;nan
8523;BME280;4299;42.202;24.736;2022-11-27T01:16:02;100770.25;;;5.83;nan
8523;BME280;4299;42.202;24.736;2022-11-27T01:18:30;100759.84;;;5.74;nan
8523;BME280;4299;42.202;24.736;2022-11-27T01:20:57;100767.03;;;5.63;nan
8523;BME280;4299;42.202;24.736;2022-11-27T01:23:24;100762.63;;;5.64;nan
8523;BME280;4299;42.202;24.736;2022-11-27T01:25:51;100765.31;;;5.62;nan
8523;BME280;4299;42.202;24.736;2022-11-27T01:28:19;100767.94;;;5.62;nan
8523;BME280;4299;42.202;24.736;2022-11-27T01:30:46;100765.31;;;5.62;nan
8523;BME280;4299;42.202;24.736;2022-11-27T01:33:13;100764.50;;;5.57;nan
8523;BME280;4299;42.202;24.736;2022-11-27T01:35:41;100767.09;;;5.60;nan
8523;BME280;4299;42.202;24.736;2022-11-27T01:38:08;100768.88;;;5.58;nan
8523;BME280;4299;42.202;24.736;2022-11-27T01:40:35;100771.53;;;5.57;nan
8523;BME280;4299;42.202;24.736;2022-11-27T01:43:01;100777.75;;;5.51;nan
8523;BME280;4299;42.202;24.736;2022-11-27T01:45:28;100778.63;;;5.52;nan
8523;BME280;4299;42.202;24.736;2022-11-27T01:47:57;100775.09;;;5.54;nan
8523;BME280;4299;42.202;24.736;2022-11-27T01:50:32;100775.91;;;5.56;nan
8523;BME280;4299;42.202;24.736;2022-11-27T01:53:05;100778.59;;;5.53;nan
8523;BME280;4299;42.202;24.736;2022-11-27T01:55:38;100772.47;;;5.54;nan
8523;BME280;4299;42.202;24.736;2022-11-27T01:58:08;100765.44;;;5.53;nan
8523;BME280;4299;42.202;24.736;2022-11-27T02:00:35;100765.59;;;5.44;nan
8523;BME280;4299;42.202;24.736;2022-11-27T02:03:02;100769.09;;;5.43;nan
8523;BME280;4299;42.202;24.736;2022-11-27T02:05:30;100760.31;;;5.44;nan
8523;BME280;4299;42.202;24.736;2022-11-27T02:07:59;100768.97;;;5.52;nan
8523;BME280;4299;42.202;24.736;2022-11-27T02:10:40;100752.31;;;5.52;nan
8523;BME280;4299;42.202;24.736;2022-11-27T02:13:12;100763.84;;;5.43;nan
8523;BME280;4299;42.202;24.736;2022-11-27T02:15:43;100770.06;;;5.37;nan
8523;BME280;4299;42.202;24.736;2022-11-27T02:18:18;100759.56;;;5.36;nan
8523;BME280;4299;42.202;24.736;2022-11-27T02:20:52;100763.97;;;5.34;nan
8523;BME280;4299;42.202;24.736;2022-11-27T02:23:57;100768.41;;;5.30;nan
8523;BME280;4299;42.202;24.736;2022-11-27T02:26:56;100757.13;;;5.24;nan
8523;BME280;4299;42.202;24.736;2022-11-27T02:29:31;100764.25;;;5.14;nan
8523;BME280;4299;42.202;24.736;2022-11-27T02:32:04;100756.44;;;5.11;nan
8523;BME280;4299;42.202;24.736;2022-11-27T02:34:42;100771.25;;;5.17;nan
8523;BME280;4299;42.202;24.736;2022-11-27T02:37:15;100771.16;;;5.23;nan
8523;BME280;4299;42.202;24.736;2022-11-27T02:39:50;100771.16;;;5.23;nan
8523;BME280;4299;42.202;24.736;2022-11-27T02:42:21;100775.56;;;5.21;nan
8523;BME280;4299;42.202;24.736;2022-11-27T02:44:53;100770.25;;;5.25;nan
8523;BME280;4299;42.202;24.736;2022-11-27T02:47:20;100774.63;;;5.25;nan
8523;BME280;4299;42.202;24.736;2022-11-27T02:49:49;100772.94;;;5.21;nan
8523;BME280;4299;42.202;24.736;2022-11-27T02:52:18;100778.19;;;5.21;nan
8523;BME280;4299;42.202;24.736;2022-11-27T02:54:47;100776.44;;;5.20;nan
8523;BME280;4299;42.202;24.736;2022-11-27T02:57:16;100772.13;;;5.17;nan
8523;BME280;4299;42.202;24.736;2022-11-27T02:59:45;100775.63;;;5.18;nan
8523;BME280;4299;42.202;24.736;2022-11-27T03:02:18;100772.94;;;5.21;nan
8523;BME280;4299;42.202;24.736;2022-11-27T03:04:48;100778.25;;;5.18;nan
8523;BME280;4299;42.202;24.736;2022-11-27T03:07:31;100774.84;;;5.09;nan
8523;BME280;4299;42.202;24.736;2022-11-27T03:10:02;100776.59;;;5.11;nan
8523;BME280;4299;42.202;24.736;2022-11-27T03:12:32;100776.50;;;5.17;nan
8523;BME280;4299;42.202;24.736;2022-11-27T03:14:59;100782.56;;;5.22;nan
8523;BME280;4299;42.202;24.736;2022-11-27T03:17:35;100785.16;;;5.25;nan
8523;BME280;4299;42.202;24.736;2022-11-27T03:20:10;100781.63;;;5.26;nan
8523;BME280;4299;42.202;24.736;2022-11-27T03:22:39;100785.25;;;5.19;nan
8523;BME280;4299;42.202;24.736;2022-11-27T03:25:06;100778.16;;;5.24;nan
8523;BME280;4299;42.202;24.736;2022-11-27T03:27:36;100780.69;;;5.30;nan
8523;BME280;4299;42.202;24.736;2022-11-27T03:30:06;100782.38;;;5.34;nan
8523;BME280;4299;42.202;24.736;2022-11-27T03:32:34;100772.72;;;5.36;nan
8523;BME280;4299;42.202;24.736;2022-11-27T03:35:01;100780.59;;;5.37;nan
8523;BME280;4299;42.202;24.736;2022-11-27T03:37:29;100779.75;;;5.34;nan
8523;BME280;4299;42.202;24.736;2022-11-27T03:39:55;100785.84;;;5.37;nan
8523;BME280;4299;42.202;24.736;2022-11-27T03:42:27;100788.38;;;5.45;nan
8523;BME280;4299;42.202;24.736;2022-11-27T03:45:01;100783.09;;;5.45;nan
8523;BME280;4299;42.202;24.736;2022-11-27T03:47:48;100781.34;;;5.47;nan
8523;BME280;4299;42.202;24.736;2022-11-27T03:50:20;100784.88;;;5.43;nan
8523;BME280;4299;42.202;24.736;2022-11-27T03:52:59;100781.38;;;5.44;nan
8523;BME280;4299;42.202;24.736;2022-11-27T03:55:37;100784.88;;;5.43;nan
8523;BME280;4299;42.202;24.736;2022-11-27T03:58:10;100781.38;;;5.44;nan
8523;BME280;4299;42.202;24.736;2022-11-27T04:00:40;100779.63;;;5.43;nan
8523;BME280;4299;42.202;24.736;2022-11-27T04:03:10;100776.00;;;5.50;nan
8523;BME280;4299;42.202;24.736;2022-11-27T04:05:37;100770.81;;;5.47;nan
8523;BME280;4299;42.202;24.736;2022-11-27T04:08:05;100763.81;;;5.46;nan
8523;BME280;4299;42.202;24.736;2022-11-27T04:10:31;100775.13;;;5.51;nan
8523;BME280;4299;42.202;24.736;2022-11-27T04:12:58;100767.22;;;5.51;nan
8523;BME280;4299;42.202;24.736;2022-11-27T04:15:25;100765.38;;;5.56;nan
8523;BME280;4299;42.202;24.736;2022-11-27T04:17:51;100763.59;;;5.61;nan
8523;BME280;4299;42.202;24.736;2022-11-27T04:20:19;100775.78;;;5.65;nan
8523;BME280;4299;42.202;24.736;2022-11-27T04:22:46;100776.69;;;5.63;nan
8523;BME280;4299;42.202;24.736;2022-11-27T04:25:13;100771.47;;;5.61;nan
8523;BME280;4299;42.202;24.736;2022-11-27T04:27:39;100782.88;;;5.60;nan
8523;BME280;4299;42.202;24.736;2022-11-27T04:30:07;100775.97;;;5.53;nan
8523;BME280;4299;42.202;24.736;2022-11-27T04:32:34;100771.69;;;5.46;nan
8523;BME280;4299;42.202;24.736;2022-11-27T04:35:00;100777.84;;;5.45;nan
8523;BME280;4299;42.202;24.736;2022-11-27T04:37:28;100773.47;;;5.44;nan
8523;BME280;4299;42.202;24.736;2022-11-27T04:39:55;100769.19;;;5.37;nan
8523;BME280;4299;42.202;24.736;2022-11-27T04:42:22;100771.03;;;5.32;nan
8523;BME280;4299;42.202;24.736;2022-11-27T04:44:48;100779.00;;;5.26;nan
8523;BME280;4299;42.202;24.736;2022-11-27T04:47:15;100781.66;;;5.23;nan
8523;BME280;4299;42.202;24.736;2022-11-27T04:49:42;100777.41;;;5.14;nan
8523;BME280;4299;42.202;24.736;2022-11-27T04:52:08;100776.69;;;5.01;nan
8523;BME280;4299;42.202;24.736;2022-11-27T04:54:37;100782.03;;;4.95;nan
8523;BME280;4299;42.202;24.736;2022-11-27T04:57:04;100789.13;;;4.87;nan
8523;BME280;4299;42.202;24.736;2022-11-27T04:59:31;100783.97;;;4.81;nan
8523;BME280;4299;42.202;24.736;2022-11-27T05:01:58;100783.19;;;4.72;nan
8523;BME280;4299;42.202;24.736;2022-11-27T05:04:24;100781.53;;;4.63;nan
8523;BME280;4299;42.202;24.736;2022-11-27T05:06:51;100784.22;;;4.60;nan
8523;BME280;4299;42.202;24.736;2022-11-27T05:09:18;100780.72;;;4.58;nan
8523;BME280;4299;42.202;24.736;2022-11-27T05:11:45;100786.06;;;4.52;nan
8523;BME280;4299;42.202;24.736;2022-11-27T05:14:12;100786.13;;;4.43;nan
8523;BME280;4299;42.202;24.736;2022-11-27T05:16:42;100784.47;;;4.36;nan
8523;BME280;4299;42.202;24.736;2022-11-27T05:19:09;100779.22;;;4.32;nan
8523;BME280;4299;42.202;24.736;2022-11-27T05:21:36;100791.53;;;4.27;nan
8523;BME280;4299;42.202;24.736;2022-11-27T05:24:03;100797.72;;;4.22;nan
8523;BME280;4299;42.202;24.736;2022-11-27T05:26:29;100796.81;;;4.24;nan
8523;BME280;4299;42.202;24.736;2022-11-27T05:28:57;100802.91;;;4.26;nan
8523;BME280;4299;42.202;24.736;2022-11-27T05:31:24;100795.91;;;4.27;nan
8523;BME280;4299;42.202;24.736;2022-11-27T05:33:50;100809.03;;;4.28;nan
8523;BME280;4299;42.202;24.736;2022-11-27T05:36:17;100810.72;;;4.32;nan
8523;BME280;4299;42.202;24.736;2022-11-27T05:38:43;100805.47;;;4.36;nan
8523;BME280;4299;42.202;24.736;2022-11-27T05:41:10;100802.78;;;4.42;nan
8523;BME280;4299;42.202;24.736;2022-11-27T05:43:36;100793.06;;;4.53;nan
8523;BME280;4299;42.202;24.736;2022-11-27T05:46:05;100793.06;;;4.53;nan
8523;BME280;4299;42.202;24.736;2022-11-27T05:48:31;100793.06;;;4.50;nan
8523;BME280;4299;42.202;24.736;2022-11-27T05:50:58;100806.19;;;4.48;nan
8523;BME280;4299;42.202;24.736;2022-11-27T05:53:24;100807.06;;;4.49;nan
8523;BME280;4299;42.202;24.736;2022-11-27T05:55:51;100812.31;;;4.49;nan
8523;BME280;4299;42.202;24.736;2022-11-27T05:58:17;100819.34;;;4.47;nan
8523;BME280;4299;42.202;24.736;2022-11-27T06:00:44;100821.09;;;4.48;nan
8523;BME280;4299;42.202;24.736;2022-11-27T06:03:12;100820.13;;;4.56;nan
8523;BME280;4299;42.202;24.736;2022-11-27T06:05:39;100813.13;;;4.58;nan
8523;BME280;4299;42.202;24.736;2022-11-27T06:08:06;100824.41;;;4.66;nan
8523;BME280;4299;42.202;24.736;2022-11-27T06:10:32;100824.28;;;4.77;nan
8523;BME280;4299;42.202;24.736;2022-11-27T06:12:59;100830.31;;;4.87;nan
8523;BME280;4299;42.202;24.736;2022-11-27T06:15:26;100826.66;;;4.98;nan
8523;BME280;4299;42.202;24.736;2022-11-27T06:17:52;100823.91;;;5.09;nan
8523;BME280;4299;42.202;24.736;2022-11-27T06:20:20;100835.13;;;5.23;nan
8523;BME280;4299;42.202;24.736;2022-11-27T06:22:48;100827.13;;;5.31;nan
8523;BME280;4299;42.202;24.736;2022-11-27T06:25:15;100835.78;;;5.39;nan
8523;BME280;4299;42.202;24.736;2022-11-27T06:27:41;100826.81;;;5.55;nan
8523;BME280;4299;42.202;24.736;2022-11-27T06:30:09;100835.38;;;5.69;nan
8523;BME280;4299;42.202;24.736;2022-11-27T06:32:36;100829.94;;;5.78;nan
8523;BME280;4299;42.202;24.736;2022-11-27T06:35:03;100825.44;;;5.88;nan
8523;BME280;4299;42.202;24.736;2022-11-27T06:37:32;100825.28;;;5.99;nan
8523;BME280;4299;42.202;24.736;2022-11-27T06:39:58;100821.69;;;6.04;nan
8523;BME280;4299;42.202;24.736;2022-11-27T06:42:27;100828.56;;;6.13;nan
8523;BME280;4299;42.202;24.736;2022-11-27T06:44:53;100827.59;;;6.17;nan
8523;BME280;4299;42.202;24.736;2022-11-27T06:47:20;100827.59;;;6.17;nan
8523;BME280;4299;42.202;24.736;2022-11-27T06:49:47;100834.50;;;6.24;nan
8523;BME280;4299;42.202;24.736;2022-11-27T06:52:13;100831.19;;;6.13;nan
8523;BME280;4299;42.202;24.736;2022-11-27T06:54:42;100838.03;;;6.21;nan
8523;BME280;4299;42.202;24.736;2022-11-27T06:57:08;100842.41;;;6.24;nan
8523;BME280;4299;42.202;24.736;2022-11-27T06:59:35;100840.44;;;6.37;nan
8523;BME280;4299;42.202;24.736;2022-11-27T07:02:02;100832.38;;;6.44;nan
8523;BME280;4299;42.202;24.736;2022-11-27T07:04:28;100833.09;;;6.54;nan
8523;BME280;4299;42.202;24.736;2022-11-27T07:06:55;100829.50;;;6.58;nan
8523;BME280;4299;42.202;24.736;2022-11-27T07:09:23;100828.47;;;6.67;nan
8523;BME280;4299;42.202;24.736;2022-11-27T07:11:51;100831.72;;;6.81;nan
8523;BME280;4299;42.202;24.736;2022-11-27T07:14:17;100830.47;;;7.00;nan
8523;BME280;4299;42.202;24.736;2022-11-27T07:16:44;100831.06;;;7.14;nan
8523;BME280;4299;42.202;24.736;2022-11-27T07:19:11;100836.91;;;7.28;nan
8523;BME280;4299;42.202;24.736;2022-11-27T07:21:39;100834.13;;;7.34;nan
8523;BME280;4299;42.202;24.736;2022-11-27T07:24:06;100837.47;;;7.42;nan
8523;BME280;4299;42.202;24.736;2022-11-27T07:26:33;100837.41;;;7.46;nan
8523;BME280;4299;42.202;24.736;2022-11-27T07:29:01;100842.47;;;7.55;nan
8523;BME280;4299;42.202;24.736;2022-11-27T07:31:28;100839.59;;;7.67;nan
8523;BME280;4299;42.202;24.736;2022-11-27T07:33:56;100844.59;;;7.77;nan
8523;BME280;4299;42.202;24.736;2022-11-27T07:36:24;100842.84;;;7.78;nan
8523;BME280;4299;42.202;24.736;2022-11-27T07:38:51;100845.41;;;7.81;nan
8523;BME280;4299;42.202;24.736;2022-11-27T07:41:18;100841.78;;;7.85;nan
8523;BME280;4299;42.202;24.736;2022-11-27T07:43:45;100839.69;;;7.99;nan
8523;BME280;4299;42.202;24.736;2022-11-27T07:46:15;100842.88;;;8.13;nan
8523;BME280;4299;42.202;24.736;2022-11-27T07:48:42;100846.00;;;8.31;nan
8523;BME280;4299;42.202;24.736;2022-11-27T07:51:11;100850.78;;;8.49;nan
8523;BME280;4299;42.202;24.736;2022-11-27T07:53:39;100851.16;;;8.69;nan
8523;BME280;4299;42.202;24.736;2022-11-27T07:56:08;100855.28;;;8.79;nan
8523;BME280;4299;42.202;24.736;2022-11-27T07:58:35;100846.44;;;8.80;nan
8523;BME280;4299;42.202;24.736;2022-11-27T08:01:05;100853.22;;;8.90;nan
8523;BME280;4299;42.202;24.736;2022-11-27T08:03:33;100858.25;;;8.99;nan
8523;BME280;4299;42.202;24.736;2022-11-27T08:06:00;100851.22;;;8.98;nan
8523;BME280;4299;42.202;24.736;2022-11-27T08:08:27;100850.19;;;9.04;nan
8523;BME280;4299;42.202;24.736;2022-11-27T08:10:53;100846.91;;;9.27;nan
8523;BME280;4299;42.202;24.736;2022-11-27T08:13:19;100846.72;;;9.33;nan
8523;BME280;4299;42.202;24.736;2022-11-27T08:15:46;100843.69;;;9.45;nan
8523;BME280;4299;42.202;24.736;2022-11-27T08:18:12;100853.00;;;9.58;nan
8523;BME280;4299;42.202;24.736;2022-11-27T08:20:40;100846.59;;;9.65;nan
8523;BME280;4299;42.202;24.736;2022-11-27T08:23:07;100844.75;;;9.69;nan
8523;BME280;4299;42.202;24.736;2022-11-27T08:25:33;100845.88;;;9.88;nan
8523;BME280;4299;42.202;24.736;2022-11-27T08:28:00;100832.13;;;10.05;nan
8523;BME280;4299;42.202;24.736;2022-11-27T08:30:26;100847.81;;;10.11;nan
8523;BME280;4299;42.202;24.736;2022-11-27T08:32:52;100840.69;;;10.13;nan
8523;BME280;4299;42.202;24.736;2022-11-27T08:35:19;100850.06;;;10.23;nan
8523;BME280;4299;42.202;24.736;2022-11-27T08:37:48;100845.09;;;10.40;nan
8523;BME280;4299;42.202;24.736;2022-11-27T08:40:15;100843.72;;;10.55;nan
8523;BME280;4299;42.202;24.736;2022-11-27T08:42:41;100847.53;;;10.73;nan
8523;BME280;4299;42.202;24.736;2022-11-27T08:45:08;100842.22;;;10.73;nan
8523;BME280;4299;42.202;24.736;2022-11-27T08:47:35;100846.69;;;10.71;nan
8523;BME280;4299;42.202;24.736;2022-11-27T08:50:02;100845.13;;;10.65;nan
8523;BME280;4299;42.202;24.736;2022-11-27T08:52:28;100838.84;;;10.68;nan
8523;BME280;4299;42.202;24.736;2022-11-27T08:54:56;100837.56;;;10.79;nan
8523;BME280;4299;42.202;24.736;2022-11-27T08:57:23;100839.13;;;10.85;nan
8523;BME280;4299;42.202;24.736;2022-11-27T08:59:50;100839.81;;;10.90;nan
8523;BME280;4299;42.202;24.736;2022-11-27T09:02:17;100832.78;;;10.89;nan
8523;BME280;4299;42.202;24.736;2022-11-27T09:04:44;100828.00;;;10.99;nan
8523;BME280;4299;42.202;24.736;2022-11-27T09:07:10;100831.78;;;11.16;nan
8523;BME280;4299;42.202;24.736;2022-11-27T09:09:38;100834.88;;;11.27;nan
8523;BME280;4299;42.202;24.736;2022-11-27T09:12:06;100830.44;;;11.28;nan
8523;BME280;4299;42.202;24.736;2022-11-27T09:14:33;100837.53;;;11.27;nan
8523;BME280;4299;42.202;24.736;2022-11-27T09:17:00;100824.03;;;11.33;nan
8523;BME280;4299;42.202;24.736;2022-11-27T09:19:27;100822.47;;;11.51;nan
8523;BME280;4299;42.202;24.736;2022-11-27T09:21:53;100818.97;;;11.74;nan
8523;BME280;4299;42.202;24.736;2022-11-27T09:24:20;100822.19;;;11.82;nan
8523;BME280;4299;42.202;24.736;2022-11-27T09:26:47;100813.41;;;11.80;nan
8523;BME280;4299;42.202;24.736;2022-11-27T09:29:15;100809.69;;;11.84;nan
8523;BME280;4299;42.202;24.736;2022-11-27T09:31:41;100813.16;;;11.86;nan
8523;BME280;4299;42.202;24.736;2022-11-27T09:34:08;100806.34;;;11.79;nan
8523;BME280;4299;42.202;24.736;2022-11-27T09:36:35;100804.06;;;11.92;nan
8523;BME280;4299;42.202;24.736;2022-11-27T09:39:02;100798.44;;;11.99;nan
8523;BME280;4299;42.202;24.736;2022-11-27T09:41:38;100788.78;;;12.19;nan
8523;BME280;4299;42.202;24.736;2022-11-27T09:44:22;100793.53;;;12.53;nan
8523;BME280;4299;42.202;24.736;2022-11-27T09:46:50;100782.81;;;12.74;nan
8523;BME280;4299;42.202;24.736;2022-11-27T09:49:23;100778.88;;;12.83;nan
8523;BME280;4299;42.202;24.736;2022-11-27T09:51:53;100774.88;;;12.73;nan
8523;BME280;4299;42.202;24.736;2022-11-27T09:54:26;100769.63;;;12.71;nan
8523;BME280;4299;42.202;24.736;2022-11-27T09:56:55;100779.69;;;12.85;nan
8523;BME280;4299;42.202;24.736;2022-11-27T09:59:28;100767.72;;;12.94;nan
8523;BME280;4299;42.202;24.736;2022-11-27T10:01:57;100766.38;;;13.04;nan
8523;BME280;4299;42.202;24.736;2022-11-27T10:04:24;100757.53;;;13.03;nan
8523;BME280;4299;42.202;24.736;2022-11-27T10:07:04;100757.72;;;13.19;nan
8523;BME280;4299;42.202;24.736;2022-11-27T10:09:47;100756.16;;;13.15;nan
8523;BME280;4299;42.202;24.736;2022-11-27T10:12:21;100755.75;;;13.04;nan
8523;BME280;4299;42.202;24.736;2022-11-27T10:15:01;100755.63;;;13.07;nan
8523;BME280;4299;42.202;24.736;2022-11-27T10:17:35;100747.47;;;13.10;nan
8523;BME280;4299;42.202;24.736;2022-11-27T10:20:13;100752.28;;;13.22;nan
8523;BME280;4299;42.202;24.736;2022-11-27T10:22:49;100749.97;;;13.33;nan
8523;BME280;4299;42.202;24.736;2022-11-27T10:25:24;100740.31;;;13.49;nan
8523;BME280;4299;42.202;24.736;2022-11-27T10:27:58;100739.38;;;13.50;nan
8523;BME280;4299;42.202;24.736;2022-11-27T10:30:30;100739.16;;;13.36;nan
8523;BME280;4299;42.202;24.736;2022-11-27T10:32:59;100730.63;;;13.66;nan
8523;BME280;4299;42.202;24.736;2022-11-27T10:35:28;100723.13;;;13.91;nan
8523;BME280;4299;42.202;24.736;2022-11-27T10:37:58;100728.84;;;13.83;nan
8523;BME280;4299;42.202;24.736;2022-11-27T10:40:30;100721.22;;;13.76;nan
8523;BME280;4299;42.202;24.736;2022-11-27T10:43:06;100708.16;;;13.71;nan
8523;BME280;4299;42.202;24.736;2022-11-27T10:45:41;100707.41;;;13.68;nan
8523;BME280;4299;42.202;24.736;2022-11-27T10:48:10;100702.25;;;13.64;nan
8523;BME280;4299;42.202;24.736;2022-11-27T10:50:38;100701.78;;;13.74;nan
8523;BME280;4299;42.202;24.736;2022-11-27T10:53:07;100691.59;;;13.64;nan
8523;BME280;4299;42.202;24.736;2022-11-27T10:55:47;100691.59;;;13.64;nan
8523;BME280;4299;42.202;24.736;2022-11-27T10:58:22;100685.50;;;13.80;nan
8523;BME280;4299;42.202;24.736;2022-11-27T11:01:02;100688.78;;;13.85;nan
8523;BME280;4299;42.202;24.736;2022-11-27T11:03:29;100687.69;;;14.06;nan
8523;BME280;4299;42.202;24.736;2022-11-27T11:05:58;100679.06;;;14.35;nan
8523;BME280;4299;42.202;24.736;2022-11-27T11:08:26;100682.19;;;14.61;nan
8523;BME280;4299;42.202;24.736;2022-11-27T11:10:58;100668.88;;;14.44;nan
8523;BME280;4299;42.202;24.736;2022-11-27T11:13:27;100661.50;;;14.31;nan
8523;BME280;4299;42.202;24.736;2022-11-27T11:15:57;100652.88;;;14.44;nan
8523;BME280;4299;42.202;24.736;2022-11-27T11:18:27;100655.56;;;14.59;nan
8523;BME280;4299;42.202;24.736;2022-11-27T11:20:56;100651.81;;;14.79;nan
8523;BME280;4299;42.202;24.736;2022-11-27T11:23:29;100654.63;;;14.76;nan
8523;BME280;4299;42.202;24.736;2022-11-27T11:26:02;100658.81;;;14.49;nan
8523;BME280;4299;42.202;24.736;2022-11-27T11:28:34;100648.19;;;14.14;nan
8523;BME280;4299;42.202;24.736;2022-11-27T11:31:05;100653.84;;;14.08;nan
8523;BME280;4299;42.202;24.736;2022-11-27T11:33:45;100652.84;;;14.26;nan
8523;BME280;4299;42.202;24.736;2022-11-27T11:36:13;100654.75;;;14.24;nan
8523;BME280;4299;42.202;24.736;2022-11-27T11:38:41;100644.25;;;14.21;nan
8523;BME280;4299;42.202;24.736;2022-11-27T11:41:10;100644.56;;;14.15;nan
8523;BME280;4299;42.202;24.736;2022-11-27T11:43:38;100644.91;;;14.09;nan
8523;BME280;4299;42.202;24.736;2022-11-27T11:46:17;100641.84;;;14.32;nan
8523;BME280;4299;42.202;24.736;2022-11-27T11:48:57;100635.91;;;14.27;nan
8523;BME280;4299;42.202;24.736;2022-11-27T11:51:33;100633.56;;;14.21;nan
8523;BME280;4299;42.202;24.736;2022-11-27T11:54:11;100631.78;;;14.22;nan
8523;BME280;4299;42.202;24.736;2022-11-27T11:56:47;100620.69;;;14.29;nan
8523;BME280;4299;42.202;24.736;2022-11-27T11:59:22;100627.44;;;14.19;nan
8523;BME280;4299;42.202;24.736;2022-11-27T12:02:05;100625.84;;;14.32;nan
8523;BME280;4299;42.202;24.736;2022-11-27T12:04:59;100617.34;;;14.59;nan
8523;BME280;4299;42.202;24.736;2022-11-27T12:07:50;100615.47;;;14.92;nan
8523;BME280;4299;42.202;24.736;2022-11-27T12:10:22;100609.97;;;14.95;nan
8523;BME280;4299;42.202;24.736;2022-11-27T12:13:00;100601.97;;;14.79;nan
8523;BME280;4299;42.202;24.736;2022-11-27T12:15:31;100602.22;;;14.75;nan
8523;BME280;4299;42.202;24.736;2022-11-27T12:18:03;100597.22;;;14.85;nan
8523;BME280;4299;42.202;24.736;2022-11-27T12:20:46;100596.03;;;14.90;nan
8523;BME280;4299;42.202;24.736;2022-11-27T12:23:46;100591.94;;;15.14;nan
8523;BME280;4299;42.202;24.736;2022-11-27T12:26:24;100589.13;;;14.86;nan
8523;BME280;4299;42.202;24.736;2022-11-27T12:29:17;100592.16;;;14.80;nan
8523;BME280;4299;42.202;24.736;2022-11-27T12:32:03;100587.59;;;14.82;nan
8523;BME280;4299;42.202;24.736;2022-11-27T12:34:38;100591.56;;;14.75;nan
8523;BME280;4299;42.202;24.736;2022-11-27T12:37:19;100582.75;;;14.73;nan
8523;BME280;4299;42.202;24.736;2022-11-27T12:40:00;100584.28;;;14.46;nan
8523;BME280;4299;42.202;24.736;2022-11-27T12:42:32;100585.91;;;13.98;nan
8523;BME280;4299;42.202;24.736;2022-11-27T12:45:04;100581.78;;;13.75;nan
8523;BME280;4299;42.202;24.736;2022-11-27T12:47:39;100574.19;;;13.68;nan
8523;BME280;4299;42.202;24.736;2022-11-27T12:50:11;100575.28;;;13.46;nan
8523;BME280;4299;42.202;24.736;2022-11-27T12:52:44;100570.63;;;13.15;nan
8523;BME280;4299;42.202;24.736;2022-11-27T12:55:14;100571.38;;;12.81;nan
8523;BME280;4299;42.202;24.736;2022-11-27T12:57:45;100576.50;;;12.67;nan
8523;BME280;4299;42.202;24.736;2022-11-27T13:00:15;100574.56;;;12.52;nan
8523;BME280;4299;42.202;24.736;2022-11-27T13:02:49;100579.44;;;12.61;nan
8523;BME280;4299;42.202;24.736;2022-11-27T13:05:20;100579.06;;;12.50;nan
8523;BME280;4299;42.202;24.736;2022-11-27T13:07:54;100572.53;;;12.57;nan
8523;BME280;4299;42.202;24.736;2022-11-27T13:10:27;100576.63;;;12.64;nan
8523;BME280;4299;42.202;24.736;2022-11-27T13:13:01;100570.38;;;12.65;nan
8523;BME280;4299;42.202;24.736;2022-11-27T13:15:34;100574.69;;;12.68;nan
8523;BME280;4299;42.202;24.736;2022-11-27T13:18:13;100575.69;;;12.65;nan
8523;BME280;4299;42.202;24.736;2022-11-27T13:20:42;100571.97;;;12.51;nan
8523;BME280;4299;42.202;24.736;2022-11-27T13:23:12;100569.66;;;12.43;nan
8523;BME280;4299;42.202;24.736;2022-11-27T13:25:42;100565.78;;;12.31;nan
8523;BME280;4299;42.202;24.736;2022-11-27T13:28:18;100566.94;;;12.26;nan
8523;BME280;4299;42.202;24.736;2022-11-27T13:30:46;100575.97;;;12.22;nan
8523;BME280;4299;42.202;24.736;2022-11-27T13:33:25;100568.22;;;12.17;nan
8523;BME280;4299;42.202;24.736;2022-11-27T13:35:56;100564.16;;;12.08;nan
8523;BME280;4299;42.202;24.736;2022-11-27T13:38:25;100568.91;;;12.21;nan
8523;BME280;4299;42.202;24.736;2022-11-27T13:40:53;100569.06;;;12.18;nan
8523;BME280;4299;42.202;24.736;2022-11-27T13:43:24;100565.91;;;12.09;nan
8523;BME280;4299;42.202;24.736;2022-11-27T13:46:00;100561.44;;;12.10;nan
8523;BME280;4299;42.202;24.736;2022-11-27T13:48:31;100570.03;;;11.96;nan
8523;BME280;4299;42.202;24.736;2022-11-27T13:50:58;100568.59;;;11.89;nan
8523;BME280;4299;42.202;24.736;2022-11-27T13:53:32;100561.13;;;11.97;nan
8523;BME280;4299;42.202;24.736;2022-11-27T13:55:59;100568.00;;;11.83;nan
8523;BME280;4299;42.202;24.736;2022-11-27T13:58:31;100555.06;;;11.75;nan